Time;durP1;ratioP1;P1;durP2;ratioP2;P2;SDS_P1;SDS_P2;PMS_P1;PMS_P2;Temp;Humidity;BMP_temperature;BMP_pressure;BME280_temperature;BME280_humidity;BME280_pressure;Samples;Min_cycle;Max_cycle;Signal;HPM_P1;HPM_P2
2021/08/04 00:00:36;;;;;;;;;;;;;;;;;;3567350;40;19933;-73
2021/08/04 00:03:02;;;;;;;;;;;;;;;;;;3571018;40;19951;-73
2021/08/04 00:05:28;;;;;;;;;;;;;;;;;;3570268;40;19929;-73
2021/08/04 00:07:54;;;;;;;;;;;;;;;;;;3570990;40;19934;-74
2021/08/04 00:10:20;;;;;;;;;;;;;;;;;;3566003;40;20172;-73
2021/08/04 00:12:46;;;;;;;;;;;;;;;;;;3571477;40;19925;-73
2021/08/04 00:15:12;;;;;;;;;;;;;;;;;;3570907;40;19954;-72
2021/08/04 00:17:38;;;;;;;;;;;;;;;;;;3571217;40;19925;-73
2021/08/04 00:20:03;;;;;;;;;;;;;;;;;;3570949;40;19933;-74
2021/08/04 00:22:29;;;;;;;;;;;;;;;;;;3561737;40;20258;-75
2021/08/04 00:24:55;;;;;;;;;;;;;;;;;;3570916;40;19933;-74
2021/08/04 00:27:21;;;;;;;;;;;;;;;;;;3561516;40;19925;-73
2021/08/04 00:29:47;;;;;;;;;;;;;;;;;;3561899;40;20036;-73
2021/08/04 00:32:13;;;;;;;;;;;;;;;;;;3570950;40;19925;-73
2021/08/04 00:34:39;;;;;;;;;;;;;;;;;;3570980;40;19961;-73
2021/08/04 00:37:05;;;;;;;;;;;;;;;;;;3570880;40;20174;-73
2021/08/04 00:39:31;;;;;;;;;;;;;;;;;;3559796;40;19945;-73
2021/08/04 00:41:57;;;;;;;;;;;;;;;;;;3565990;40;19935;-73
2021/08/04 00:44:23;;;;;;;;;;;;;;;;;;3571031;40;19925;-73
2021/08/04 00:46:49;;;;;;;;;;;;;;;;;;3571102;40;20008;-74
2021/08/04 00:49:14;;;;;;;;;;;;;;;;;;3570697;40;20010;-74
2021/08/04 00:51:40;;;;;;;;;;;;;;;;;;3561024;40;20278;-73
2021/08/04 00:54:06;;;;;;;;;;;;;;;;;;3560908;40;19937;-74
2021/08/04 00:56:32;;;;;;;;;;;;;;;;;;3561164;40;19966;-74
2021/08/04 00:58:58;;;;;;;;;;;;;;;;;;3560983;40;19926;-74
2021/08/04 01:01:24;;;;;;;;;;;;;;;;;;3563248;40;19930;-75
2021/08/04 01:06:18;;;;;;;;;;;;;;;;;;3571755;40;20039;-74
2021/08/04 01:08:44;;;;;;;;;;;;;;;;;;3569793;40;19925;-74
2021/08/04 01:11:10;;;;;;;;;;;;;;;;;;3569738;40;20011;-74
2021/08/04 01:13:36;;;;;;;;;;;;;;;;;;3570758;40;19933;-74
2021/08/04 01:16:02;;;;;;;;;;;;;;;;;;3570889;40;20190;-76
2021/08/04 01:18:30;;;;;;;;;;;;;;;;;;3570718;40;19929;-73
2021/08/04 01:20:55;;;;;;;;;;;;;;;;;;3569562;40;19933;-74
2021/08/04 01:23:22;;;;;;;;;;;;;;;;;;3570777;40;20015;-73
2021/08/04 01:25:48;;;;;;;;;;;;;;;;;;3570730;40;20189;-74
2021/08/04 01:28:14;;;;;;;;;;;;;;;;;;3569465;40;19925;-74
2021/08/04 01:30:40;;;;;;;;;;;;;;;;;;3570643;40;19932;-74
2021/08/04 01:33:06;;;;;;;;;;;;;;;;;;3569483;40;20305;-74
2021/08/04 01:35:32;;;;;;;;;;;;;;;;;;3569786;40;19933;-75
2021/08/04 01:37:57;;;;;;;;;;;;;;;;;;3571607;40;19932;-76
2021/08/04 01:40:25;;;;;;;;;;;;;;;;;;3571328;40;20271;-74
2021/08/04 01:42:51;;;;;;;;;;;;;;;;;;3569592;40;19944;-75
2021/08/04 01:45:17;;;;;;;;;;;;;;;;;;3570722;40;19931;-74
2021/08/04 01:47:43;;;;;;;;;;;;;;;;;;3570844;40;20363;-73
2021/08/04 01:50:08;;;;;;;;;;;;;;;;;;3569533;40;19925;-75
2021/08/04 01:52:36;;;;;;;;;;;19.60;99.90;;;;;;3569497;40;19933;-75
2021/08/04 01:55:03;;;;;;;;;;;17.80;99.90;;;;;;3561036;40;20286;-78
2021/08/04 01:57:29;;;;;;;;;;;17.70;99.90;;;;;;3561101;40;20196;-74
2021/08/04 01:59:54;;;;;;;;;;;17.60;99.90;;;;;;3560615;40;19929;-74
2021/08/04 02:02:20;;;;;;;;;;;;;;;;;;3557739;40;19933;-75
2021/08/04 02:04:46;;;;;;;;;;;;;;;;;;3561581;40;19925;-73
2021/08/04 02:07:12;;;;;;;;;;;;;;;;;;3560819;40;20191;-74
2021/08/04 02:09:38;;;;;;;;;;;;;;;;;;3560452;40;19931;-72
2021/08/04 02:12:04;;;;;;;;;;;;;;;;;;3560602;40;20384;-74
2021/08/04 02:14:30;;;;;;;;;;;;;;;;;;3560594;40;20311;-74
2021/08/04 02:17:01;;;;;;;;;;;17.60;99.90;;;;;;3542743;40;20142;-73
2021/08/04 02:19:29;;;;;;;;;;;17.40;99.90;;;;;;3551763;40;19933;-75
2021/08/04 02:21:58;;;;;;;;;;;17.40;99.90;;;;;;3560884;40;19936;-73
2021/08/04 02:24:24;;;;;;;;;;;;;;;;;;3561010;40;19929;-75
2021/08/04 02:26:50;;;;;;;;;;;;;;;;;;3560799;40;19928;-73
2021/08/04 02:29:16;;;;;;;;;;;;;;;;;;3559679;40;20172;-73
2021/08/04 02:31:41;;;;;;;;;;;;;;;;;;3560436;40;19922;-74
2021/08/04 02:34:07;;;;;;;;;;;;;;;;;;3560498;40;19926;-73
2021/08/04 02:36:33;;;;;;;;;;;;;;;;;;3560740;40;19929;-74
2021/08/04 02:39:01;;;;;;;;;;;;;;;;;;3560586;40;19933;-74
2021/08/04 02:41:27;;;;;;;;;;;;;;;;;;3550895;40;19938;-75
2021/08/04 02:43:53;;;;;;;;;;;;;;;;;;3549974;40;20016;-74
2021/08/04 02:46:19;;;;;;;;;;;;;;;;;;3550679;40;19933;-74
2021/08/04 02:48:45;;;;;;;;;;;;;;;;;;3550936;40;20270;-74
2021/08/04 02:51:11;;;;;;;;;;;;;;;;;;3550015;40;20050;-74
2021/08/04 02:53:37;;;;;;;;;;;;;;;;;;3554890;40;20020;-75
2021/08/04 02:56:02;;;;;;;;;;;;;;;;;;3562129;40;19941;-79
2021/08/04 02:58:35;;;;;;;;;;;;;;;;;;3566484;40;19941;-75
2021/08/04 03:01:01;;;;;;;;;;;;;;;;;;3572305;40;20254;-75
2021/08/04 03:03:27;;;;;;;;;;;;;;;;;;3571105;40;20014;-75
2021/08/04 03:05:56;;;;;;;;;;;;;;;;;;3572210;40;20022;-77
2021/08/04 03:08:22;;;;;;;;;;;;;;;;;;3571480;40;19939;-75
2021/08/04 03:10:48;;;;;;;;;;;;;;;;;;3561877;40;19925;-76
2021/08/04 03:13:14;;;;;;;;;;;;;;;;;;3571109;40;20265;-76
2021/08/04 03:15:40;;;;;;;;;;;;;;;;;;3571184;40;19932;-75
2021/08/04 03:18:06;;;;;;;;;;;;;;;;;;3571126;40;19929;-77
2021/08/04 03:20:31;;;;;;;;;;;;;;;;;;3571093;40;19932;-75
2021/08/04 03:22:57;;;;;;;;;;;;;;;;;;3571200;40;19929;-76
2021/08/04 03:25:23;;;;;;;;;;;;;;;;;;3571437;40;20182;-76
2021/08/04 03:27:49;;;;;;;;;;;;;;;;;;3559799;40;19926;-76
2021/08/04 03:30:15;;;;;;;;;;;;;;;;;;3561190;40;19934;-76
2021/08/04 03:32:43;;;;;;;;;;;17.40;99.90;;;;;;3561652;40;20011;-75
2021/08/04 03:35:10;;;;;;;;;;;16.90;99.90;;;;;;3551736;40;19933;-75
2021/08/04 03:37:36;;;;;;;;;;;;;;;;;;3559613;40;19936;-75
2021/08/04 03:40:02;;;;;;;;;;;16.90;99.90;;;;;;3560988;40;20179;-76
2021/08/04 03:42:28;;;;;;;;;;;;;;;;;;3560986;40;19973;-75
2021/08/04 03:44:54;;;;;;;;;;;;;;;;;;3561159;40;19936;-75
2021/08/04 03:47:20;;;;;;;;;;;;;;;;;;3561074;40;19932;-75
2021/08/04 03:49:46;;;;;;;;;;;;;;;;;;3561400;40;19932;-76
2021/08/04 03:52:12;;;;;;;;;;;;;;;;;;3559819;40;19932;-75
2021/08/04 03:54:39;;;;;;;;;;;16.70;99.90;;;;;;3561282;40;19929;-78
2021/08/04 03:57:04;;;;;;;;;;;16.60;99.90;;;;;;3560891;40;19941;-75
2021/08/04 03:59:30;;;;;;;;;;;16.60;99.90;;;;;;3558809;40;19929;-75
2021/08/04 04:01:56;;;;;;;;;;;16.60;99.90;;;;;;3560808;40;19949;-76
2021/08/04 04:04:21;;;;;;;;;;;16.60;99.90;;;;;;3561199;40;19929;-76
2021/08/04 04:06:47;;;;;;;;;;;16.70;99.90;;;;;;3560944;40;20361;-79
2021/08/04 04:09:13;;;;;;;;;;;16.70;99.90;;;;;;3559451;40;19937;-75
2021/08/04 04:11:40;;;;;;;;;;;16.70;99.90;;;;;;3561623;40;19929;-77
2021/08/04 04:14:05;;;;;;;;;;;16.70;99.90;;;;;;3553212;40;19962;-75
2021/08/04 04:16:31;;;;;;;;;;;16.80;99.90;;;;;;3553121;40;19934;-75
2021/08/04 04:18:57;;;;;;;;;;;16.80;99.90;;;;;;3562392;40;19933;-76
2021/08/04 04:21:22;;;;;;;;;;;16.80;99.90;;;;;;3553072;40;19929;-73
2021/08/04 04:23:48;;;;;;;;;;;16.80;99.90;;;;;;3561739;40;19937;-73
2021/08/04 04:26:14;;;;;;;;;;;16.80;99.90;;;;;;3560903;40;20015;-73
2021/08/04 04:28:41;;;;;;;;;;;16.80;99.90;;;;;;3561023;40;19937;-74
2021/08/04 04:31:06;;;;;;;;;;;16.80;99.90;;;;;;3560547;40;20209;-74
2021/08/04 04:33:32;;;;;;;;;;;16.80;99.90;;;;;;3561975;40;19930;-74
2021/08/04 04:35:58;;;;;;;;;;;16.80;99.90;;;;;;3561814;40;19929;-75
2021/08/04 04:38:24;;;;;;;;;;;16.70;99.90;;;;;;3562127;40;19981;-74
2021/08/04 04:40:49;;;;;;;;;;;16.70;99.90;;;;;;3560644;40;19930;-74
2021/08/04 04:43:15;;;;;;;;;;;;;;;;;;3561929;40;19942;-73
2021/08/04 04:45:42;;;;;;;;;;;;;;;;;;3560491;40;20186;-73
2021/08/04 04:48:08;;;;;;;;;;;;;;;;;;3562063;40;19961;-76
2021/08/04 04:50:34;;;;;;;;;;;;;;;;;;3561423;40;19930;-74
2021/08/04 04:53:00;;;;;;;;;;;;;;;;;;3561643;40;20266;-75
2021/08/04 04:55:27;;;;;;;;;;;16.70;99.90;;;;;;3563090;40;19937;-74
2021/08/04 04:57:53;;;;;;;;;;;16.70;99.90;;;;;;3568600;40;20022;-75
2021/08/04 05:00:19;;;;;;;;;;;;;;;;;;3561756;40;19938;-75
2021/08/04 05:02:45;;;;;;;;;;;;;;;;;;3560831;40;19929;-75
2021/08/04 05:05:10;;;;;;;;;;;;;;;;;;3561578;40;19933;-74
2021/08/04 05:07:36;;;;;;;;;;;;;;;;;;3567856;40;19937;-74
2021/08/04 05:10:02;;;;;;;;;;;;;;;;;;3565637;40;19956;-75
2021/08/04 05:12:28;;;;;;;;;;;;;;;;;;3571503;40;19929;-74
2021/08/04 05:14:54;;;;;;;;;;;;;;;;;;3571524;40;19932;-74
2021/08/04 05:17:20;;;;;;;;;;;;;;;;;;3578757;40;19933;-75
2021/08/04 05:19:46;;;;;;;;;;;;;;;;;;3566573;40;20048;-74
2021/08/04 05:22:12;;;;;;;;;;;;;;;;;;3568797;40;20269;-74
2021/08/04 05:24:38;;;;;;;;;;;;;;;;;;3565385;40;19929;-75
2021/08/04 05:27:04;;;;;;;;;;;;;;;;;;3578559;40;19929;-74
2021/08/04 05:29:30;;;;;;;;;;;;;;;;;;3571499;40;19976;-75
2021/08/04 05:31:57;;;;;;;;;;;16.70;99.90;;;;;;3576781;40;20190;-75
2021/08/04 05:34:23;;;;;;;;;;;;;;;;;;3568192;40;19945;-74
2021/08/04 05:36:48;;;;;;;;;;;17.20;99.90;;;;;;3571612;40;19983;-75
2021/08/04 05:39:14;;;;;;;;;;;17.30;99.90;;;;;;3571420;40;19937;-75
2021/08/04 05:41:40;;;;;;;;;;;17.40;99.90;;;;;;3569825;40;19933;-75
2021/08/04 05:44:06;;;;;;;;;;;;;;;;;;3571149;40;19929;-75
2021/08/04 05:46:31;;;;;;;;;;;;;;;;;;3581431;40;19925;-74
2021/08/04 05:48:57;;;;;;;;;;;;;;;;;;3572104;40;19936;-74
2021/08/04 05:51:23;;;;;;;;;;;;;;;;;;3579217;40;19937;-75
2021/08/04 05:53:49;;;;;;;;;;;;;;;;;;3578406;40;20267;-75
2021/08/04 05:56:15;;;;;;;;;;;;;;;;;;3571346;40;19929;-75
2021/08/04 05:58:41;;;;;;;;;;;;;;;;;;3571228;40;19926;-75
2021/08/04 06:01:07;;;;;;;;;;;;;;;;;;3565069;40;19934;-75
2021/08/04 06:03:33;;;;;;;;;;;;;;;;;;3563427;40;19925;-75
2021/08/04 06:05:59;;;;;;;;;;;;;;;;;;3578438;40;19925;-75
2021/08/04 06:08:25;;;;;;;;;;;;;;;;;;3571435;40;19933;-75
2021/08/04 06:10:51;;;;;;;;;;;;;;;;;;3571078;40;19929;-76
2021/08/04 06:13:17;;;;;;;;;;;;;;;;;;3571227;40;19936;-75
2021/08/04 06:15:43;;;;;;;;;;;;;;;;;;3574217;40;20190;-75
2021/08/04 06:18:08;;;;;;;;;;;;;;;;;;3561044;40;19946;-77
2021/08/04 06:20:34;;;;;;;;;;;;;;;;;;3560939;40;19932;-73
2021/08/04 06:23:00;;;;;;;;;;;;;;;;;;3560862;40;20390;-73
2021/08/04 06:25:26;;;;;;;;;;;;;;;;;;3559944;40;19925;-73
2021/08/04 06:27:52;;;;;;;;;;;;;;;;;;3558377;40;19929;-73
2021/08/04 06:30:18;;;;;;;;;;;;;;;;;;3561131;40;19934;-74
2021/08/04 06:32:44;;;;;;;;;;;;;;;;;;3563310;40;19929;-73
2021/08/04 06:35:10;;;;;;;;;;;;;;;;;;3577641;40;19925;-74
2021/08/04 06:37:36;;;;;;;;;;;;;;;;;;3570654;40;19940;-73
2021/08/04 06:40:02;;;;;;;;;;;;;;;;;;3578046;40;20167;-73
2021/08/04 06:42:28;;;;;;;;;;;;;;;;;;3578127;40;20048;-74
2021/08/04 06:44:54;;;;;;;;;;;;;;;;;;3577788;40;19932;-74
2021/08/04 06:47:20;;;;;;;;;;;;;;;;;;3577816;40;19925;-73
2021/08/04 06:49:45;;;;;;;;;;;;;;;;;;3570490;40;19951;-72
2021/08/04 06:52:11;;;;;;;;;;;;;;;;;;3570370;40;19932;-73
2021/08/04 06:54:37;;;;;;;;;;;;;;;;;;3568777;40;19925;-72
2021/08/04 06:57:03;;;;;;;;;;;;;;;;;;3561111;40;20022;-68
2021/08/04 06:59:29;;;;;;;;;;;;;;;;;;3561941;40;19929;-70
2021/08/04 07:01:55;;;;;;;;;;;;;;;;;;3567597;40;20019;-70
2021/08/04 07:04:21;;;;;;;;;;;;;;;;;;3568160;40;20202;-73
2021/08/04 07:06:47;;;;;;;;;;;;;;;;;;3569193;40;19948;-74
2021/08/04 07:09:13;;;;;;;;;;;;;;;;;;3564537;40;19960;-73
2021/08/04 07:11:39;;;;;;;;;;;;;;;;;;3560071;40;19930;-73
2021/08/04 07:14:04;;;;;;;;;;;;;;;;;;3559022;40;19929;-73
2021/08/04 07:16:30;;;;;;;;;;;;;;;;;;3562722;40;20280;-73
2021/08/04 07:18:56;;;;;;;;;;;;;;;;;;3569787;40;19949;-73
2021/08/04 07:21:23;;;;;;;;;;;;;;;;;;3569960;40;19939;-73
2021/08/04 07:23:49;;;;;;;;;;;;;;;;;;3569700;40;19964;-75
2021/08/04 07:26:15;;;;;;;;;;;;;;;;;;3563464;40;19940;-73
2021/08/04 07:28:41;;;;;;;;;;;;;;;;;;3548950;40;19936;-73
2021/08/04 07:31:08;;;;;;;;;;;;;;;;;;3552683;40;19934;-74
2021/08/04 07:33:34;;;;;;;;;;;;;;;;;;3559950;40;20023;-74
2021/08/04 07:35:59;;;;;;;;;;;;;;;;;;3561368;40;19933;-73
2021/08/04 07:38:25;;;;;;;;;;;;;;;;;;3565152;40;19941;-73
2021/08/04 07:40:51;;;;;;;;;;;;;;;;;;3552399;40;20274;-73
2021/08/04 07:43:17;;;;;;;;;;;;;;;;;;3540967;40;20053;-74
2021/08/04 07:45:43;;;;;;;;;;;;;;;;;;3556662;40;19933;-73
2021/08/04 07:48:09;;;;;;;;;;;;;;;;;;3561201;40;19929;-74
2021/08/04 07:50:35;;;;;;;;;;;;;;;;;;3558553;40;20180;-74
2021/08/04 07:53:01;;;;;;;;;;;;;;;;;;3551790;40;19977;-73
2021/08/04 07:55:27;;;;;;;;;;;;;;;;;;3556724;40;19945;-75
2021/08/04 07:57:53;;;;;;;;;;;;;;;;;;3561901;40;19977;-74
2021/08/04 08:00:19;;;;;;;;;;;;;;;;;;3560208;40;19969;-73
2021/08/04 08:02:45;;;;;;;;;;;;;;;;;;3558705;40;20191;-73
2021/08/04 08:05:10;;;;;;;;;;;;;;;;;;3560014;40;20035;-73
2021/08/04 08:07:36;;;;;;;;;;;;;;;;;;3565333;40;20286;-73
2021/08/04 08:10:03;;;;;;;;;;;;;;;;;;3568906;40;19934;-74
2021/08/04 08:12:29;;;;;;;;;;;;;;;;;;3571294;40;20042;-73
2021/08/04 08:14:55;;;;;;;;;;;;;;;;;;3569927;40;19929;-74
2021/08/04 08:17:21;;;;;;;;;;;;;;;;;;3569431;40;20175;-75
2021/08/04 08:19:47;;;;;;;;;;;;;;;;;;3562114;40;19940;-73
2021/08/04 08:22:13;;;;;;;;;;;;;;;;;;3569108;40;20069;-74
2021/08/04 08:24:39;;;;;;;;;;;;;;;;;;3567388;40;19940;-74
2021/08/04 08:27:05;;;;;;;;;;;;;;;;;;3560199;40;19949;-74
2021/08/04 08:29:31;;;;;;;;;;;;;;;;;;3557340;40;19940;-75
2021/08/04 08:31:57;;;;;;;;;;;;;;;;;;3569808;40;19940;-74
2021/08/04 08:34:23;;;;;;;;;;;;;;;;;;3561125;40;19937;-74
2021/08/04 08:36:49;;;;;;;;;;;;;;;;;;3560939;40;19933;-73
2021/08/04 08:39:15;;;;;;;;;;;;;;;;;;3567948;40;19945;-74
2021/08/04 08:41:40;;;;;;;;;;;;;;;;;;3559963;40;19937;-74
2021/08/04 08:44:07;;;;;;;;;;;;;;;;;;3560845;40;20274;-73
2021/08/04 08:46:33;;;;;;;;;;;;;;;;;;3560878;40;19930;-74
2021/08/04 08:48:59;;;;;;;;;;;;;;;;;;3566960;40;20318;-74
2021/08/04 08:51:25;;;;;;;;;;;;;;;;;;3561735;40;19933;-74
2021/08/04 08:53:51;;;;;;;;;;;;;;;;;;3559823;40;19929;-74
2021/08/04 08:56:18;;;;;;;;;;;;;;;;;;3559881;40;19948;-73
2021/08/04 08:58:44;;;;;;;;;;;;;;;;;;3560615;40;19966;-75
2021/08/04 09:01:10;;;;;;;;;;;;;;;;;;3561123;40;20052;-74
2021/08/04 09:03:36;;;;;;;;;;;;;;;;;;3570612;40;19929;-74
2021/08/04 09:06:04;;;;;;;;;;;;;;;;;;3570751;40;19929;-73
2021/08/04 09:08:30;;;;;;;;;;;;;;;;;;3574625;40;19945;-74
2021/08/04 09:10:56;;;;;;;;;;;;;;;;;;3570947;40;20250;-74
2021/08/04 09:13:22;;;;;;;;;;;;;;;;;;3569810;40;19929;-73
2021/08/04 09:15:48;;;;;;;;;;;;;;;;;;3570707;40;19940;-74
2021/08/04 09:18:14;;;;;;;;;;;;;;;;;;3570703;40;19933;-73
2021/08/04 09:20:40;;;;;;;;;;;;;;;;;;3562107;40;20327;-73
2021/08/04 09:23:06;;;;;;;;;;;;;;;;;;3570653;40;19933;-73
2021/08/04 09:25:32;;;;;;;;;;;;;;;;;;3568355;40;19930;-74
2021/08/04 09:27:57;;;;;;;;;;;;;;;;;;3578304;40;19929;-74
2021/08/04 09:30:26;;;;;;;;;;;;;;;;;;3577857;40;19945;-74
2021/08/04 09:32:52;;;;;;;;;;;;;;;;;;3576356;40;19934;-73
2021/08/04 09:35:18;;;;;;;;;;;;;;;;;;3566324;40;20171;-74
2021/08/04 09:37:47;;;;;;;;;;;;;;;;;;3568760;40;20278;-74
2021/08/04 09:40:13;;;;;;;;;;;;;;;;;;3572606;40;20309;-74
2021/08/04 09:42:39;;;;;;;;;;;;;;;;;;3563377;40;19933;-74
2021/08/04 09:45:05;;;;;;;;;;;;;;;;;;3570536;40;20332;-74
2021/08/04 09:47:31;;;;;;;;;;;;;;;;;;3570665;40;19944;-73
2021/08/04 09:49:57;;;;;;;;;;;;;;;;;;3560562;40;19929;-74
2021/08/04 09:52:23;;;;;;;;;;;;;;;;;;3560675;40;19929;-74
2021/08/04 09:54:49;;;;;;;;;;;;;;;;;;3567880;40;19929;-74
2021/08/04 09:57:15;;;;;;;;;;;;;;;;;;3565908;40;20316;-74
2021/08/04 09:59:41;;;;;;;;;;;;;;;;;;3577228;40;19932;-73
2021/08/04 10:02:06;;;;;;;;;;;;;;;;;;3570260;40;19939;-74
2021/08/04 10:04:32;;;;;;;;;;;;;;;;;;3570404;40;19939;-74
2021/08/04 10:06:58;;;;;;;;;;;;;;;;;;3570106;40;19933;-73
2021/08/04 10:09:24;;;;;;;;;;;;;;;;;;3566984;40;19940;-74
2021/08/04 10:11:50;;;;;;;;;;;;;;;;;;3573287;40;19933;-74
2021/08/04 10:14:17;;;;;;;;;;;;;;;;;;3574115;40;20194;-74
2021/08/04 10:16:43;;;;;;;;;;;;;;;;;;3574511;40;19981;-74
2021/08/04 10:19:09;;;;;;;;;;;;;;;;;;3570912;40;19933;-74
2021/08/04 10:21:35;;;;;;;;;;;;;;;;;;3561091;40;19929;-74
2021/08/04 10:24:01;;;;;;;;;;;;;;;;;;3570560;40;19945;-74
2021/08/04 10:26:27;;;;;;;;;;;;;;;;;;3570492;40;20026;-73
2021/08/04 10:28:57;;;;;;;;;;;;;;;;;;3570450;40;19944;-73
2021/08/04 10:31:22;;;;;;;;;;;;;;;;;;3568945;40;20198;-73
2021/08/04 10:33:48;;;;;;;;;;;;;;;;;;3560866;40;19936;-72
2021/08/04 10:36:14;;;;;;;;;;;;;;;;;;3558267;40;19940;-73
2021/08/04 10:38:40;;;;;;;;;;;;;;;;;;3560533;40;19929;-74
2021/08/04 10:41:06;;;;;;;;;;;;;;;;;;3559667;40;19937;-74
2021/08/04 10:43:32;;;;;;;;;;;;;;;;;;3560680;40;19936;-74
2021/08/04 10:45:58;;;;;;;;;;;;;;;;;;3560607;40;19929;-74
2021/08/04 10:48:24;;;;;;;;;;;;;;;;;;3560574;40;19937;-75
2021/08/04 10:50:50;;;;;;;;;;;;;;;;;;3560394;40;19936;-74
2021/08/04 10:53:16;;;;;;;;;;;;;;;;;;3559520;40;20254;-73
2021/08/04 10:55:42;;;;;;;;;;;;;;;;;;3566233;40;19948;-74
2021/08/04 10:58:08;;;;;;;;;;;;;;;;;;3570145;40;19933;-74
2021/08/04 11:00:34;;;;;;;;;;;;;;;;;;3570421;40;20390;-74
2021/08/04 11:02:59;;;;;;;;;;;;;;;;;;3570276;40;20273;-74
2021/08/04 11:05:25;;;;;;;;;;;;;;;;;;3569467;40;19933;-75
2021/08/04 11:07:51;;;;;;;;;;;;;;;;;;3567322;40;19937;-74
2021/08/04 11:10:17;;;;;;;;;;;;;;;;;;3560208;40;19940;-75
2021/08/04 11:12:43;;;;;;;;;;;;;;;;;;3560256;40;19936;-75
2021/08/04 11:15:09;;;;;;;;;;;;;;;;;;3557551;40;19933;-73
2021/08/04 11:17:35;;;;;;;;;;;;;;;;;;3552106;40;20291;-73
2021/08/04 11:20:05;;;;;;;;;;;;;;;;;;3554264;40;19941;-74
2021/08/04 11:22:32;;;;;;;;;;;;;;;;;;3553777;40;19933;-77
2021/08/04 11:24:58;;;;;;;;;;;;;;;;;;3561753;40;20266;-79
2021/08/04 11:27:25;;;;;;;;;;;;;;;;;;3570505;40;19935;-77
2021/08/04 11:29:51;;;;;;;;;;;;;;;;;;3563902;40;19929;-76
2021/08/04 11:32:17;;;;;;;;;;;;;;;;;;3561536;40;19929;-76
2021/08/04 11:34:43;;;;;;;;;;;;;;;;;;3561391;40;19983;-75
2021/08/04 11:37:08;;;;;;;;;;;;;;;;;;3569579;40;20198;-77
2021/08/04 11:39:34;;;;;;;;;;;;;;;;;;3569186;40;19941;-77
2021/08/04 11:42:07;;;;;;;;;;;;;;;;;;3569186;40;19941;-75
2021/08/04 11:44:34;;;;;;;;;;;;;;;;;;3569130;40;19929;-80
2021/08/04 11:47:05;;;;;;;;;;;;;;;;;;3561998;40;20016;-77
2021/08/04 11:49:31;;;;;;;;;;;;;;;;;;3569083;40;20267;-76
2021/08/04 11:51:57;;;;;;;;;;;;;;;;;;3569245;40;19936;-77
2021/08/04 11:54:23;;;;;;;;;;;;;;;;;;3568998;40;20283;-77
2021/08/04 11:56:49;;;;;;;;;;;;;;;;;;3569191;40;19930;-76
2021/08/04 11:59:15;;;;;;;;;;;;;;;;;;3569313;40;19942;-76
2021/08/04 12:01:41;;;;;;;;;;;;;;;;;;3563119;40;19929;-78
2021/08/04 12:04:07;;;;;;;;;;;;;;;;;;3561457;40;20011;-76
2021/08/04 12:06:33;;;;;;;;;;;;;;;;;;3568471;40;19952;-76
2021/08/04 12:08:59;;;;;;;;;;;;;;;;;;3568517;40;20022;-76
2021/08/04 12:11:25;;;;;;;;;;;;;;;;;;3560852;40;20275;-81
2021/08/04 12:13:51;;;;;;;;;;;;;;;;;;3560050;40;20045;-76
2021/08/04 12:16:17;;;;;;;;;;;;;;;;;;3560990;40;19933;-75
2021/08/04 12:18:43;;;;;;;;;;;;;;;;;;3557534;40;19961;-75
2021/08/04 12:21:09;;;;;;;;;;;;;;;;;;3550896;40;19930;-76
2021/08/04 12:23:35;;;;;;;;;;;;;;;;;;3549551;40;19925;-77
2021/08/04 12:26:01;;;;;;;;;;;;;;;;;;3559259;40;19929;-73
2021/08/04 12:28:27;;;;;;;;;;;;;;;;;;3562820;40;19937;-75
2021/08/04 12:30:53;;;;;;;;;;;;;;;;;;3560097;40;19930;-79
2021/08/04 12:33:20;;;;;;;;;;;;;;;;;;3556320;40;19938;-73
2021/08/04 12:36:01;;;;;;;;;;;;;;;;;;3552821;40;19925;-76
2021/08/04 12:38:26;;;;;;;;;;;;;;;;;;3551510;40;20179;-73
2021/08/04 12:40:52;;;;;;;;;;;;;;;;;;3551513;40;19926;-74
2021/08/04 12:43:18;;;;;;;;;;;;;;;;;;3550446;40;19930;-73
2021/08/04 12:45:44;;;;;;;;;;;;;;;;;;3550462;40;19940;-74
2021/08/04 12:48:10;;;;;;;;;;;;;;;;;;3561084;40;19944;-73
2021/08/04 12:50:36;;;;;;;;;;;;;;;;;;3561365;40;19929;-74
2021/08/04 12:53:02;;;;;;;;;;;;;;;;;;3568779;40;20210;-77
2021/08/04 12:55:28;;;;;;;;;;;;;;;;;;3561432;40;19937;-74
2021/08/04 12:57:54;;;;;;;;;;;;;;;;;;3562046;40;19930;-75
2021/08/04 13:00:20;;;;;;;;;;;;;;;;;;3571991;40;19940;-76
2021/08/04 13:02:49;;;;;;;;;;;;;;;;;;3571847;40;20198;-73
2021/08/04 13:05:15;;;;;;;;;;;;;;;;;;3560955;40;19940;-74
2021/08/04 13:07:41;;;;;;;;;;;;;;;;;;3560188;40;19986;-72
2021/08/04 13:10:07;;;;;;;;;;;;;;;;;;3561793;40;19940;-72
2021/08/04 13:12:33;;;;;;;;;;;;;;;;;;3561268;40;19929;-73
2021/08/04 13:14:59;;;;;;;;;;;;;;;;;;3561255;40;19939;-73
2021/08/04 13:17:25;;;;;;;;;;;;;;;;;;3561614;40;19936;-74
2021/08/04 13:19:51;;;;;;;;;;;;;;;;;;3560447;40;19936;-77
2021/08/04 13:22:17;;;;;;;;;;;;;;;;;;3561004;40;20195;-74
2021/08/04 13:24:44;;;;;;;;;;;;;;;;;;3559995;40;19929;-73
2021/08/04 13:27:10;;;;;;;;;;;;;;;;;;3561097;40;20279;-73
2021/08/04 13:29:36;;;;;;;;;;;;;;;;;;3561182;40;19930;-74
2021/08/04 13:32:01;;;;;;;;;;;;;;;;;;3567355;40;19942;-75
2021/08/04 13:34:27;;;;;;;;;;;;;;;;;;3571531;40;20249;-75
2021/08/04 13:36:53;;;;;;;;;;;;;;;;;;3571359;40;19929;-73
2021/08/04 13:39:19;;;;;;;;;;;;;;;;;;3569812;40;20197;-73
2021/08/04 13:41:45;;;;;;;;;;;;;;;;;;3570890;40;20010;-72
2021/08/04 13:44:11;;;;;;;;;;;;;;;;;;3570273;40;20278;-73
2021/08/04 13:46:37;;;;;;;;;;;;;;;;;;3569786;40;19948;-73
2021/08/04 13:49:03;;;;;;;;;;;;;;;;;;3569494;40;19945;-75
2021/08/04 13:51:29;;;;;;;;;;;;;;;;;;3571748;40;19936;-75
2021/08/04 13:53:55;;;;;;;;;;;;;;;;;;3570657;40;19939;-72
2021/08/04 13:56:21;;;;;;;;;;;;;;;;;;3554036;40;20206;-73
2021/08/04 13:58:47;;;;;;;;;;;;;;;;;;3567725;40;19961;-74
2021/08/04 14:01:13;;;;;;;;;;;;;;;;;;3568370;40;19933;-78
2021/08/04 14:03:39;;;;;;;;;;;;;;;;;;3570772;40;19961;-75
2021/08/04 14:06:04;;;;;;;;;;;;;;;;;;3570309;40;19988;-75
2021/08/04 14:08:30;;;;;;;;;;;;;;;;;;3570311;40;20198;-75
2021/08/04 14:10:56;;;;;;;;;;;;;;;;;;3566151;40;19934;-75
2021/08/04 14:13:22;;;;;;;;;;;;;;;;;;3561140;40;19929;-74
2021/08/04 14:15:48;;;;;;;;;;;;;;;;;;3558919;40;19941;-77
2021/08/04 14:18:14;;;;;;;;;;;;;;;;;;3558004;40;20234;-77
2021/08/04 14:20:40;;;;;;;;;;;;;;;;;;3562356;40;19940;-77
2021/08/04 14:23:06;;;;;;;;;;;;;;;;;;3561915;40;20023;-75
2021/08/04 14:25:32;;;;;;;;;;;;;;;;;;3562161;40;19929;-76
2021/08/04 14:27:58;;;;;;;;;;;;;;;;;;3562349;40;20261;-76
2021/08/04 14:30:24;;;;;;;;;;;;;;;;;;3562482;40;19945;-76
2021/08/04 14:32:51;;;;;;;;;;;;;;;;;;3560785;40;19930;-74
2021/08/04 14:35:18;;;;;;;;;;;;;;;;;;3557103;40;19976;-75
2021/08/04 14:37:44;;;;;;;;;;;;;;;;;;3560821;40;20048;-74
2021/08/04 14:40:10;;;;;;;;;;;;;;;;;;3558471;40;19977;-74
2021/08/04 14:42:36;;;;;;;;;;;;;;;;;;3558498;40;20287;-76
2021/08/04 14:45:02;;;;;;;;;;;;;;;;;;3551616;40;19934;-75
2021/08/04 14:47:29;;;;;;;;;;;17.40;99.90;;;;;;3551466;40;19929;-75
2021/08/04 14:49:55;;;;;;;;;;;23.00;99.90;;;;;;3570804;40;20265;-73
2021/08/04 14:52:20;;;;;;;;;;;22.80;99.90;;;;;;3564565;40;19934;-75
2021/08/04 14:54:46;;;;;;;;;;;22.70;99.90;;;;;;3567212;40;19933;-74
2021/08/04 14:57:12;;;;;;;;;;;22.70;99.90;;;;;;3551138;40;19940;-74
2021/08/04 14:59:38;;;;;;;;;;;;;;;;;;3560753;40;19937;-74
2021/08/04 15:02:04;;;;;;;;;;;;;;;;;;3560754;40;19929;-74
2021/08/04 15:04:30;;;;;;;;;;;;;;;;;;3560840;40;20048;-74
2021/08/04 15:06:56;;;;;;;;;;;;;;;;;;3560493;40;20015;-75
2021/08/04 15:09:22;;;;;;;;;;;;;;;;;;3558098;40;20254;-75
2021/08/04 15:11:49;;;;;;;;;;;22.70;99.90;;;;;;3568996;40;19929;-75
2021/08/04 15:14:15;;;;;;;;;;;22.90;99.90;;;;;;3560770;40;19937;-74
2021/08/04 15:16:41;;;;;;;;;;;23.10;99.90;;;;;;3564054;40;20286;-75
2021/08/04 15:19:06;;;;;;;;;;;23.10;99.90;;;;;;3566295;40;19940;-74
2021/08/04 15:21:32;;;;;;;;;;;23.00;99.90;;;;;;3565681;40;19939;-74
2021/08/04 15:23:58;;;;;;;;;;;23.10;99.90;;;;;;3562401;40;19946;-74
2021/08/04 15:26:24;;;;;;;;;;;23.10;99.90;;;;;;3559168;40;20202;-74
2021/08/04 15:28:51;;;;;;;;;;;23.10;99.90;;;;;;3560428;40;20202;-74
2021/08/04 15:31:17;;;;;;;;;;;23.10;99.90;;;;;;3551320;40;19934;-74
2021/08/04 15:33:43;;;;;;;;;;;23.00;99.90;;;;;;3550792;40;19934;-74
2021/08/04 15:36:09;;;;;;;;;;;23.00;99.90;;;;;;3567198;40;19934;-74
2021/08/04 15:38:35;;;;;;;;;;;22.90;99.90;;;;;;3560173;40;19948;-73
2021/08/04 15:41:01;;;;;;;;;;;22.80;99.90;;;;;;3559905;40;19970;-74
2021/08/04 15:43:26;;;;;;;;;;;22.70;99.90;;;;;;3555108;40;19941;-73
2021/08/04 15:45:54;;;;;;;;;;;22.70;99.90;;;;;;3569800;40;20172;-74
2021/08/04 15:48:19;;;;;;;;;;;22.70;99.90;;;;;;3560697;40;19937;-74
2021/08/04 15:50:45;;;;;;;;;;;22.90;99.90;;;;;;3563934;40;19933;-74
2021/08/04 15:53:11;;;;;;;;;;;22.80;99.90;;;;;;3560254;40;19934;-75
2021/08/04 15:55:39;;;;;;;;;;;22.80;99.90;;;;;;3559899;40;20361;-74
2021/08/04 15:58:05;;;;;;;;;;;22.70;99.90;;;;;;3560281;40;19940;-74
2021/08/04 16:00:31;;;;;;;;;;;22.80;99.90;;;;;;3550550;40;19934;-74
2021/08/04 16:02:58;;;;;;;;;;;22.80;99.90;;;;;;3558306;40;20305;-74
2021/08/04 16:05:24;;;;;;;;;;;22.80;99.90;;;;;;3561027;40;19999;-77
2021/08/04 16:07:50;;;;;;;;;;;22.90;99.90;;;;;;3556016;40;19949;-74
2021/08/04 16:10:15;;;;;;;;;;;23.00;99.90;;;;;;3559608;40;19934;-74